RYR935 EPWA-LOWW
Flight info
| Callsign | RYR935 |
|---|---|
| Flight time | 0h 51m |
| Altitude | 34000 |
| Route | EVINA N744 TUSIN DCT MIKOV MIKOV8W |
| Aircraft | B738/M-SDGIJ1LRWY/SB1 |
Departure
| Time | 2026-04-22 19:03 |
|---|---|
| Airport | Warsaw Chopin Airport (EPWA) |
Arrival
| Time | 2026-04-22 19:55 |
|---|---|
| Airport | Vienna International Airport (LOWW) |
| Time | Latitude | Longitude | Altitude | Speed | Heading |
|---|---|---|---|---|---|
| 2026-04-22 18:36 | 52.17002 | 20.96840 | 330 ft | 0 kts | 277° |
| 2026-04-22 18:59 | 52.17002 | 20.96839 | 330 ft | 0 kts | 277° |
| 2026-04-22 18:59 | 52.17001 | 20.96805 | 330 ft | 3 kts | 259° |
| 2026-04-22 18:59 | 52.16987 | 20.96771 | 330 ft | 3 kts | 205° |
| 2026-04-22 18:59 | 52.16944 | 20.96788 | 330 ft | 11 kts | 156° |
| 2026-04-22 19:00 | 52.16869 | 20.96851 | 330 ft | 12 kts | 152° |
| 2026-04-22 19:00 | 52.16797 | 20.96915 | 331 ft | 11 kts | 151° |
| 2026-04-22 19:00 | 52.16726 | 20.96978 | 333 ft | 11 kts | 152° |
| 2026-04-22 19:00 | 52.16671 | 20.97046 | 334 ft | 9 kts | 128° |
| 2026-04-22 19:01 | 52.16632 | 20.97166 | 336 ft | 13 kts | 116° |
| 2026-04-22 19:01 | 52.16583 | 20.97336 | 336 ft | 17 kts | 114° |
| 2026-04-22 19:01 | 52.16531 | 20.97522 | 337 ft | 18 kts | 115° |
| 2026-04-22 19:01 | 52.16479 | 20.97708 | 336 ft | 18 kts | 114° |
| 2026-04-22 19:02 | 52.16429 | 20.97804 | 335 ft | 10 kts | 174° |
| 2026-04-22 19:02 | 52.16358 | 20.97762 | 333 ft | 11 kts | 208° |
| 2026-04-22 19:02 | 52.16301 | 20.97699 | 333 ft | 5 kts | 260° |
| 2026-04-22 19:02 | 52.16322 | 20.97611 | 334 ft | 13 kts | 294° |
| 2026-04-22 19:03 | 52.16435 | 20.97208 | 336 ft | 73 kts | 295° |
| 2026-04-22 19:03 | 52.16739 | 20.96126 | 337 ft | 134 kts | 295° |
| 2026-04-22 19:03 | 52.17182 | 20.94585 | 683 ft | 154 kts | 296° |
| 2026-04-22 19:03 | 52.17619 | 20.93087 | 1486 ft | 147 kts | 298° |
| 2026-04-22 19:04 | 52.18037 | 20.91579 | 2114 ft | 151 kts | 298° |
| 2026-04-22 19:04 | 52.18334 | 20.89869 | 2582 ft | 170 kts | 274° |
| 2026-04-22 19:04 | 52.18053 | 20.87923 | 3075 ft | 186 kts | 259° |
| 2026-04-22 19:04 | 52.17683 | 20.85816 | 3496 ft | 203 kts | 262° |
| 2026-04-22 19:05 | 52.17191 | 20.83561 | 3957 ft | 228 kts | 243° |
| 2026-04-22 19:05 | 52.15936 | 20.81813 | 4491 ft | 255 kts | 210° |
| 2026-04-22 19:05 | 52.14203 | 20.80835 | 5011 ft | 273 kts | 200° |
| 2026-04-22 19:05 | 52.12338 | 20.79962 | 5610 ft | 284 kts | 201° |
| 2026-04-22 19:06 | 52.10450 | 20.78964 | 6349 ft | 290 kts | 204° |
| 2026-04-22 19:06 | 52.08570 | 20.77864 | 7119 ft | 295 kts | 205° |
| 2026-04-22 19:06 | 52.06624 | 20.76677 | 7902 ft | 300 kts | 205° |
| 2026-04-22 19:07 | 52.02697 | 20.74264 | 9484 ft | 310 kts | 204° |
| 2026-04-22 19:07 | 52.00677 | 20.73031 | 10346 ft | 314 kts | 203° |
| 2026-04-22 19:07 | 51.98577 | 20.71753 | 10901 ft | 330 kts | 203° |
| 2026-04-22 19:07 | 51.96386 | 20.70421 | 11402 ft | 346 kts | 202° |
| 2026-04-22 19:08 | 51.94082 | 20.69024 | 11891 ft | 362 kts | 202° |
| 2026-04-22 19:08 | 51.91687 | 20.67575 | 12384 ft | 378 kts | 202° |
| 2026-04-22 19:08 | 51.89216 | 20.66084 | 13043 ft | 387 kts | 201° |
| 2026-04-22 19:08 | 51.86669 | 20.64550 | 13795 ft | 394 kts | 201° |
| 2026-04-22 19:09 | 51.84086 | 20.62996 | 14603 ft | 399 kts | 201° |
| 2026-04-22 19:09 | 51.81500 | 20.61435 | 15397 ft | 405 kts | 202° |
| 2026-04-22 19:09 | 51.79768 | 20.60185 | 15916 ft | 408 kts | 208° |
| 2026-04-22 19:09 | 51.76540 | 20.56998 | 16995 ft | 413 kts | 216° |
| 2026-04-22 19:10 | 51.74210 | 20.54298 | 17751 ft | 418 kts | 218° |
| 2026-04-22 19:10 | 51.71877 | 20.51522 | 18412 ft | 426 kts | 218° |
| 2026-04-22 19:10 | 51.69471 | 20.48694 | 19222 ft | 429 kts | 218° |
| 2026-04-22 19:10 | 51.67044 | 20.45914 | 19914 ft | 435 kts | 217° |
| 2026-04-22 19:11 | 51.64567 | 20.43144 | 20617 ft | 439 kts | 216° |
| 2026-04-22 19:11 | 51.62018 | 20.40340 | 21378 ft | 442 kts | 216° |
| 2026-04-22 19:11 | 51.59460 | 20.37555 | 22009 ft | 448 kts | 215° |
| 2026-04-22 19:11 | 51.56884 | 20.34768 | 22610 ft | 454 kts | 214° |
| 2026-04-22 19:12 | 51.54254 | 20.31934 | 23010 ft | 456 kts | 214° |
| 2026-04-22 19:12 | 51.51629 | 20.29111 | 23399 ft | 460 kts | 214° |
| 2026-04-22 19:12 | 51.48979 | 20.26267 | 23793 ft | 464 kts | 213° |
| 2026-04-22 19:12 | 51.46281 | 20.23375 | 24452 ft | 467 kts | 214° |
| 2026-04-22 19:13 | 51.43574 | 20.20477 | 25024 ft | 472 kts | 213° |
| 2026-04-22 19:13 | 51.40845 | 20.17558 | 25577 ft | 476 kts | 213° |
| 2026-04-22 19:13 | 51.38106 | 20.14634 | 26112 ft | 481 kts | 213° |
| 2026-04-22 19:13 | 51.35264 | 20.11604 | 26708 ft | 484 kts | 212° |
| 2026-04-22 19:14 | 51.32410 | 20.08565 | 27203 ft | 489 kts | 212° |
| 2026-04-22 19:14 | 51.29574 | 20.05549 | 27864 ft | 490 kts | 212° |
| 2026-04-22 19:14 | 51.26734 | 20.02534 | 28493 ft | 490 kts | 212° |
| 2026-04-22 19:14 | 51.23911 | 19.99542 | 29129 ft | 490 kts | 211° |
| 2026-04-22 19:15 | 51.22031 | 19.97551 | 29626 ft | 487 kts | 212° |
| 2026-04-22 19:15 | 51.18275 | 19.93576 | 30666 ft | 481 kts | 211° |
| 2026-04-22 19:15 | 51.15527 | 19.90674 | 31230 ft | 480 kts | 211° |
| 2026-04-22 19:15 | 51.12747 | 19.87745 | 31686 ft | 482 kts | 211° |
| 2026-04-22 19:16 | 51.09952 | 19.84806 | 32142 ft | 484 kts | 210° |
| 2026-04-22 19:16 | 51.07145 | 19.81858 | 32598 ft | 485 kts | 210° |
| 2026-04-22 19:16 | 51.04346 | 19.78924 | 33054 ft | 486 kts | 210° |
| 2026-04-22 19:16 | 51.01494 | 19.75939 | 33476 ft | 488 kts | 210° |
| 2026-04-22 19:17 | 50.98697 | 19.73015 | 33889 ft | 489 kts | 210° |
| 2026-04-22 19:17 | 50.95820 | 19.70013 | 34109 ft | 494 kts | 210° |
| 2026-04-22 19:17 | 50.92953 | 19.67030 | 34111 ft | 502 kts | 210° |
| 2026-04-22 19:18 | 50.87120 | 19.60962 | 34122 ft | 497 kts | 210° |
| 2026-04-22 19:18 | 50.81354 | 19.54974 | 34118 ft | 500 kts | 210° |
| 2026-04-22 19:19 | 50.75555 | 19.48971 | 34127 ft | 499 kts | 210° |
| 2026-04-22 19:19 | 50.69736 | 19.42963 | 34132 ft | 498 kts | 209° |
| 2026-04-22 19:20 | 50.63926 | 19.36985 | 34134 ft | 499 kts | 209° |
| 2026-04-22 19:20 | 50.58163 | 19.31074 | 34137 ft | 495 kts | 208° |
| 2026-04-22 19:21 | 50.52394 | 19.25176 | 34139 ft | 498 kts | 208° |
| 2026-04-22 19:21 | 50.46581 | 19.19251 | 34140 ft | 496 kts | 208° |
| 2026-04-22 19:22 | 50.40802 | 19.13381 | 34146 ft | 497 kts | 208° |
| 2026-04-22 19:22 | 50.34979 | 19.07482 | 34145 ft | 495 kts | 208° |
| 2026-04-22 19:23 | 50.29184 | 19.01628 | 34151 ft | 494 kts | 207° |
| 2026-04-22 19:23 | 50.23413 | 18.95818 | 34151 ft | 496 kts | 208° |
| 2026-04-22 19:24 | 50.17624 | 18.90005 | 34155 ft | 495 kts | 208° |
| 2026-04-22 19:24 | 50.11828 | 18.84199 | 34155 ft | 496 kts | 207° |
| 2026-04-22 19:25 | 50.06031 | 18.78411 | 34160 ft | 495 kts | 207° |
| 2026-04-22 19:25 | 50.00280 | 18.72684 | 34160 ft | 493 kts | 207° |
| 2026-04-22 19:26 | 49.94496 | 18.66944 | 34162 ft | 492 kts | 207° |
| 2026-04-22 19:26 | 49.88752 | 18.61232 | 34160 ft | 494 kts | 209° |
| 2026-04-22 19:27 | 49.83380 | 18.54552 | 34162 ft | 501 kts | 222° |
| 2026-04-22 19:27 | 49.78702 | 18.46562 | 34175 ft | 502 kts | 228° |
| 2026-04-22 19:28 | 49.74326 | 18.38140 | 34173 ft | 503 kts | 230° |
| 2026-04-22 19:28 | 49.70007 | 18.29684 | 34175 ft | 501 kts | 229° |
| 2026-04-22 19:29 | 49.65628 | 18.21234 | 33989 ft | 504 kts | 228° |
| 2026-04-22 19:29 | 49.63441 | 18.17065 | 33737 ft | 500 kts | 229° |
| 2026-04-22 19:29 | 49.61248 | 18.12912 | 33487 ft | 499 kts | 228° |
| 2026-04-22 19:29 | 49.59044 | 18.08763 | 33235 ft | 500 kts | 228° |
| 2026-04-22 19:30 | 49.57595 | 18.06045 | 33072 ft | 500 kts | 228° |
| 2026-04-22 19:30 | 49.54645 | 18.00532 | 32743 ft | 501 kts | 228° |
| 2026-04-22 19:30 | 49.52409 | 17.96365 | 32490 ft | 500 kts | 228° |
| 2026-04-22 19:30 | 49.50183 | 17.92224 | 32240 ft | 503 kts | 228° |
| 2026-04-22 19:31 | 49.47988 | 17.88147 | 32003 ft | 502 kts | 228° |
| 2026-04-22 19:31 | 49.45755 | 17.84006 | 31755 ft | 502 kts | 228° |
| 2026-04-22 19:31 | 49.43539 | 17.79901 | 31520 ft | 503 kts | 228° |
| 2026-04-22 19:31 | 49.41298 | 17.75757 | 31275 ft | 503 kts | 228° |
| 2026-04-22 19:32 | 49.39075 | 17.71652 | 31030 ft | 502 kts | 228° |
| 2026-04-22 19:32 | 49.36831 | 17.67515 | 30742 ft | 504 kts | 228° |
| 2026-04-22 19:32 | 49.34609 | 17.63427 | 30276 ft | 505 kts | 228° |
| 2026-04-22 19:32 | 49.32384 | 17.59338 | 29752 ft | 499 kts | 228° |
| 2026-04-22 19:33 | 49.30156 | 17.55247 | 29238 ft | 493 kts | 229° |
| 2026-04-22 19:33 | 49.27984 | 17.51262 | 28750 ft | 487 kts | 229° |
| 2026-04-22 19:33 | 49.25827 | 17.47312 | 28261 ft | 481 kts | 228° |
| 2026-04-22 19:33 | 49.23704 | 17.43433 | 27738 ft | 476 kts | 229° |
| 2026-04-22 19:34 | 49.21596 | 17.39588 | 27206 ft | 471 kts | 229° |
| 2026-04-22 19:34 | 49.19504 | 17.35781 | 26615 ft | 467 kts | 229° |
| 2026-04-22 19:34 | 49.17424 | 17.32000 | 26087 ft | 462 kts | 228° |
| 2026-04-22 19:34 | 49.15369 | 17.28269 | 25551 ft | 457 kts | 228° |
| 2026-04-22 19:35 | 49.13356 | 17.24618 | 25012 ft | 453 kts | 229° |
| 2026-04-22 19:35 | 49.11327 | 17.20943 | 24424 ft | 449 kts | 229° |
| 2026-04-22 19:35 | 49.10010 | 17.18562 | 24097 ft | 445 kts | 229° |
| 2026-04-22 19:35 | 49.07364 | 17.13780 | 23340 ft | 440 kts | 229° |
| 2026-04-22 19:36 | 49.05412 | 17.10259 | 22789 ft | 436 kts | 229° |
| 2026-04-22 19:36 | 49.03486 | 17.06788 | 22247 ft | 431 kts | 229° |
| 2026-04-22 19:36 | 49.01562 | 17.03327 | 21703 ft | 427 kts | 230° |
| 2026-04-22 19:36 | 48.99562 | 16.99989 | 21164 ft | 422 kts | 223° |
| 2026-04-22 19:37 | 48.97322 | 16.97254 | 20616 ft | 417 kts | 212° |
| 2026-04-22 19:37 | 48.94802 | 16.95149 | 20039 ft | 411 kts | 201° |
| 2026-04-22 19:37 | 48.92145 | 16.93667 | 19461 ft | 406 kts | 195° |
| 2026-04-22 19:37 | 48.89437 | 16.92465 | 18911 ft | 400 kts | 193° |
| 2026-04-22 19:38 | 48.86755 | 16.91355 | 18304 ft | 397 kts | 193° |
| 2026-04-22 19:38 | 48.84137 | 16.90204 | 17729 ft | 395 kts | 195° |
| 2026-04-22 19:38 | 48.81553 | 16.88928 | 17166 ft | 391 kts | 197° |
| 2026-04-22 19:38 | 48.78991 | 16.87529 | 16588 ft | 387 kts | 199° |
| 2026-04-22 19:39 | 48.76495 | 16.86078 | 15894 ft | 387 kts | 200° |
| 2026-04-22 19:39 | 48.74025 | 16.84597 | 15212 ft | 387 kts | 201° |
| 2026-04-22 19:39 | 48.71546 | 16.83091 | 14601 ft | 383 kts | 201° |
| 2026-04-22 19:39 | 48.69093 | 16.81598 | 14015 ft | 380 kts | 201° |
| 2026-04-22 19:40 | 48.66655 | 16.80118 | 13462 ft | 375 kts | 201° |
| 2026-04-22 19:40 | 48.64263 | 16.78683 | 13210 ft | 370 kts | 200° |
| 2026-04-22 19:40 | 48.61803 | 16.77628 | 13062 ft | 365 kts | 190° |
| 2026-04-22 19:40 | 48.59298 | 16.77079 | 12426 ft | 364 kts | 184° |
| 2026-04-22 19:41 | 48.56795 | 16.76772 | 11756 ft | 364 kts | 183° |
| 2026-04-22 19:41 | 48.54304 | 16.76499 | 11571 ft | 350 kts | 183° |
| 2026-04-22 19:41 | 48.51939 | 16.76191 | 11430 ft | 336 kts | 184° |
| 2026-04-22 19:41 | 48.49665 | 16.75834 | 11295 ft | 323 kts | 185° |
| 2026-04-22 19:42 | 48.47475 | 16.75447 | 11058 ft | 315 kts | 186° |
| 2026-04-22 19:42 | 48.45305 | 16.75040 | 10661 ft | 314 kts | 186° |
| 2026-04-22 19:42 | 48.43131 | 16.74623 | 10275 ft | 311 kts | 187° |
| 2026-04-22 19:42 | 48.40992 | 16.74211 | 9870 ft | 310 kts | 187° |
| 2026-04-22 19:43 | 48.36762 | 16.73400 | 9135 ft | 304 kts | 187° |
| 2026-04-22 19:43 | 48.34694 | 16.73005 | 9025 ft | 292 kts | 187° |
| 2026-04-22 19:43 | 48.32715 | 16.72628 | 8921 ft | 281 kts | 187° |
| 2026-04-22 19:44 | 48.30823 | 16.72268 | 8753 ft | 273 kts | 187° |
| 2026-04-22 19:44 | 48.28943 | 16.71911 | 8458 ft | 272 kts | 187° |
| 2026-04-22 19:44 | 48.27072 | 16.71555 | 8159 ft | 271 kts | 187° |
| 2026-04-22 19:44 | 48.25217 | 16.71204 | 7795 ft | 271 kts | 187° |
| 2026-04-22 19:45 | 48.23355 | 16.70851 | 7479 ft | 270 kts | 188° |
| 2026-04-22 19:45 | 48.21486 | 16.70510 | 7171 ft | 269 kts | 185° |
| 2026-04-22 19:45 | 48.19664 | 16.70877 | 6809 ft | 267 kts | 152° |
| 2026-04-22 19:45 | 48.18224 | 16.72531 | 6510 ft | 257 kts | 127° |
| 2026-04-22 19:46 | 48.17124 | 16.74573 | 6307 ft | 249 kts | 122° |
| 2026-04-22 19:46 | 48.16079 | 16.76555 | 6213 ft | 240 kts | 124° |
| 2026-04-22 19:46 | 48.15013 | 16.78459 | 6081 ft | 234 kts | 126° |
| 2026-04-22 19:46 | 48.13953 | 16.80281 | 5820 ft | 234 kts | 126° |
| 2026-04-22 19:47 | 48.12870 | 16.82121 | 5586 ft | 233 kts | 126° |
| 2026-04-22 19:47 | 48.11800 | 16.83932 | 5355 ft | 232 kts | 126° |
| 2026-04-22 19:47 | 48.11119 | 16.85151 | 5161 ft | 231 kts | 121° |
| 2026-04-22 19:47 | 48.10075 | 16.87870 | 4834 ft | 224 kts | 109° |
| 2026-04-22 19:48 | 48.09417 | 16.89993 | 4583 ft | 224 kts | 109° |
| 2026-04-22 19:48 | 48.08711 | 16.92062 | 4328 ft | 227 kts | 121° |
| 2026-04-22 19:48 | 48.07504 | 16.93597 | 4051 ft | 235 kts | 155° |
| 2026-04-22 19:48 | 48.05931 | 16.93959 | 3997 ft | 233 kts | 190° |
| 2026-04-22 19:49 | 48.04452 | 16.93034 | 3993 ft | 230 kts | 225° |
| 2026-04-22 19:49 | 48.03555 | 16.91161 | 3982 ft | 217 kts | 259° |
| 2026-04-22 19:49 | 48.03352 | 16.88994 | 3994 ft | 207 kts | 274° |
| 2026-04-22 19:49 | 48.03313 | 16.86932 | 3989 ft | 193 kts | 276° |
| 2026-04-22 19:50 | 48.03279 | 16.84973 | 3994 ft | 187 kts | 276° |
| 2026-04-22 19:50 | 48.03244 | 16.83009 | 4010 ft | 188 kts | 276° |
| 2026-04-22 19:50 | 48.03344 | 16.81117 | 4007 ft | 181 kts | 290° |
| 2026-04-22 19:50 | 48.03766 | 16.79378 | 3969 ft | 178 kts | 300° |
| 2026-04-22 19:51 | 48.04290 | 16.77708 | 3632 ft | 181 kts | 301° |
| 2026-04-22 19:51 | 48.04839 | 16.76022 | 3380 ft | 177 kts | 302° |
| 2026-04-22 19:51 | 48.05373 | 16.74390 | 3098 ft | 172 kts | 302° |
| 2026-04-22 19:51 | 48.05885 | 16.72830 | 2889 ft | 162 kts | 302° |
| 2026-04-22 19:52 | 48.06372 | 16.71366 | 2673 ft | 157 kts | 302° |
| 2026-04-22 19:52 | 48.06844 | 16.69923 | 2472 ft | 149 kts | 302° |
| 2026-04-22 19:52 | 48.07290 | 16.68558 | 2275 ft | 139 kts | 302° |
| 2026-04-22 19:52 | 48.07715 | 16.67274 | 2044 ft | 136 kts | 302° |
| 2026-04-22 19:53 | 48.08124 | 16.66026 | 1870 ft | 132 kts | 302° |
| 2026-04-22 19:53 | 48.08529 | 16.64798 | 1695 ft | 133 kts | 301° |
| 2026-04-22 19:53 | 48.08798 | 16.63975 | 1567 ft | 132 kts | 301° |
| 2026-04-22 19:53 | 48.09339 | 16.62333 | 1338 ft | 133 kts | 299° |
| 2026-04-22 19:54 | 48.09742 | 16.61101 | 1140 ft | 134 kts | 299° |
| 2026-04-22 19:54 | 48.10155 | 16.59850 | 975 ft | 132 kts | 298° |
| 2026-04-22 19:54 | 48.10553 | 16.58619 | 806 ft | 131 kts | 297° |
| 2026-04-22 19:54 | 48.10958 | 16.57401 | 618 ft | 131 kts | 298° |
| 2026-04-22 19:55 | 48.11296 | 16.56368 | 594 ft | 84 kts | 297° |
| 2026-04-22 19:55 | 48.11491 | 16.55774 | 585 ft | 53 kts | 295° |
| 2026-04-22 19:55 | 48.11653 | 16.55353 | 583 ft | 34 kts | 314° |
| 2026-04-22 19:55 | 48.11789 | 16.55165 | 582 ft | 19 kts | 329° |
| 2026-04-22 19:56 | 48.11875 | 16.55152 | 582 ft | 7 kts | 22° |
| 2026-04-22 19:56 | 48.11907 | 16.55174 | 583 ft | 4 kts | 25° |
| 2026-04-22 19:56 | 48.11934 | 16.55194 | 583 ft | 4 kts | 38° |
| 2026-04-22 19:56 | 48.11947 | 16.55236 | 583 ft | 4 kts | 85° |
| 2026-04-22 19:57 | 48.11946 | 16.55287 | 582 ft | 4 kts | 69° |
| 2026-04-22 19:57 | 48.11973 | 16.55320 | 582 ft | 5 kts | 31° |
| 2026-04-22 19:57 | 48.12007 | 16.55348 | 582 ft | 6 kts | 26° |
| 2026-04-22 19:57 | 48.12049 | 16.55377 | 582 ft | 7 kts | 26° |
| 2026-04-22 19:58 | 48.12082 | 16.55369 | 581 ft | 5 kts | 309° |
| 2026-04-22 19:58 | 48.12095 | 16.55332 | 581 ft | 0 kts | 297° |